createdAt,value
2019-03-26T00:00:04.661Z,0.00
2019-03-26T00:01:15.426Z,0.00
2019-03-26T00:02:26.660Z,0.00
2019-03-26T00:03:37.374Z,0.00
2019-03-26T00:04:48.088Z,0.00
2019-03-26T00:05:59.296Z,0.00
2019-03-26T00:07:10.509Z,0.00
2019-03-26T00:08:21.226Z,0.00
2019-03-26T00:09:31.927Z,0.00
2019-03-26T00:10:42.635Z,0.00
2019-03-26T00:11:53.428Z,0.00
2019-03-26T00:13:04.067Z,0.00
2019-03-26T00:14:15.778Z,0.00
2019-03-26T00:15:26.648Z,0.00
2019-03-26T00:16:37.361Z,0.00
2019-03-26T00:17:48.655Z,0.00
2019-03-26T00:18:59.868Z,0.00
2019-03-26T00:20:10.567Z,0.00
2019-03-26T00:21:22.273Z,0.00
2019-03-26T00:22:33.492Z,0.00
2019-03-26T00:23:44.715Z,0.00
2019-03-26T00:24:55.425Z,0.00
2019-03-26T00:26:06.134Z,0.00
2019-03-26T00:27:16.847Z,0.00
2019-03-26T00:28:27.560Z,0.00
2019-03-26T00:29:38.272Z,0.00
2019-03-26T00:30:48.985Z,0.00
2019-03-26T00:31:59.689Z,0.00
2019-03-26T00:33:10.399Z,0.00
2019-03-26T00:34:21.097Z,0.00
2019-03-26T00:35:32.309Z,0.00
2019-03-26T00:36:43.012Z,0.00
2019-03-26T00:37:53.739Z,0.00
2019-03-26T00:39:04.433Z,0.00
2019-03-26T00:40:15.151Z,0.00
2019-03-26T00:41:25.857Z,0.00
2019-03-26T00:42:36.559Z,0.00
2019-03-26T00:43:47.264Z,0.00
2019-03-26T00:44:57.970Z,0.00
2019-03-26T00:46:08.673Z,0.00
2019-03-26T00:47:19.371Z,0.00
2019-03-26T00:48:30.075Z,0.00
2019-03-26T00:49:40.770Z,0.00
2019-03-26T00:50:51.475Z,0.00
2019-03-26T00:52:02.166Z,0.00
2019-03-26T00:53:12.869Z,0.00
2019-03-26T00:54:24.061Z,0.00
2019-03-26T00:55:34.751Z,0.00
2019-03-26T00:56:45.438Z,0.00
2019-03-26T00:57:56.133Z,0.00
2019-03-26T00:59:06.831Z,0.00
2019-03-26T01:00:17.535Z,0.00
2019-03-26T01:01:28.237Z,0.00
2019-03-26T01:02:39.408Z,0.00
2019-03-26T01:03:50.644Z,0.00
2019-03-26T01:05:01.847Z,0.00
2019-03-26T01:06:12.535Z,0.00
2019-03-26T01:07:23.230Z,0.00
2019-03-26T01:08:33.925Z,0.00
2019-03-26T01:09:44.616Z,0.00
2019-03-26T01:10:55.302Z,0.00
2019-03-26T01:12:05.992Z,0.00
2019-03-26T01:13:16.696Z,0.00
2019-03-26T01:14:27.411Z,0.00
2019-03-26T01:15:38.090Z,0.00
2019-03-26T01:16:48.784Z,0.00
2019-03-26T01:17:59.472Z,0.00
2019-03-26T01:19:10.165Z,0.00
2019-03-26T01:20:20.851Z,0.00
2019-03-26T01:21:31.536Z,0.00
2019-03-26T01:22:42.217Z,0.00
2019-03-26T01:23:52.919Z,0.00
2019-03-26T01:25:03.604Z,0.00
2019-03-26T01:26:14.285Z,0.00
2019-03-26T01:27:24.981Z,0.00
2019-03-26T01:28:35.669Z,0.00
2019-03-26T01:29:46.364Z,0.00
2019-03-26T01:30:57.047Z,0.00
2019-03-26T01:32:07.737Z,0.00
2019-03-26T01:33:18.428Z,0.00
2019-03-26T01:34:29.616Z,0.00
2019-03-26T01:35:40.301Z,0.00
2019-03-26T01:36:50.991Z,0.00
2019-03-26T01:38:01.680Z,0.00
2019-03-26T01:39:12.368Z,0.00
2019-03-26T01:40:23.058Z,0.00
2019-03-26T01:41:33.761Z,0.00
2019-03-26T01:42:44.457Z,0.00
2019-03-26T01:43:55.138Z,0.00
2019-03-26T01:45:05.837Z,0.00
2019-03-26T01:46:16.518Z,0.00
2019-03-26T01:47:27.706Z,0.00
2019-03-26T01:48:38.384Z,0.00
2019-03-26T01:49:49.083Z,0.00
2019-03-26T01:50:59.773Z,0.00
2019-03-26T01:52:10.510Z,0.00
2019-03-26T01:53:21.139Z,0.00
2019-03-26T01:54:31.827Z,0.00
2019-03-26T01:55:42.519Z,0.00
2019-03-26T01:56:53.703Z,0.00
2019-03-26T01:58:04.383Z,0.00
2019-03-26T01:59:15.069Z,0.00
2019-03-26T02:00:26.248Z,0.00
2019-03-26T02:01:36.936Z,0.00
2019-03-26T02:02:48.117Z,0.00
2019-03-26T02:03:58.803Z,0.00
2019-03-26T02:05:09.499Z,0.00
2019-03-26T02:06:20.266Z,0.00
2019-03-26T02:07:30.870Z,0.00
2019-03-26T02:08:41.553Z,0.00
2019-03-26T02:09:52.243Z,0.00
2019-03-26T02:11:02.932Z,0.00
2019-03-26T02:12:13.629Z,0.00
2019-03-26T02:13:24.819Z,0.00
2019-03-26T02:14:36.987Z,0.00
2019-03-26T02:15:47.675Z,0.00
2019-03-26T02:16:58.365Z,0.00
2019-03-26T02:18:09.118Z,0.00
2019-03-26T02:19:19.731Z,0.00
2019-03-26T02:20:30.439Z,0.00
2019-03-26T02:21:41.122Z,0.00
2019-03-26T02:22:51.811Z,0.00
2019-03-26T02:24:02.670Z,0.00
2019-03-26T02:25:13.354Z,0.00
2019-03-26T02:26:24.041Z,0.00
2019-03-26T02:27:35.216Z,0.00
2019-03-26T02:28:45.893Z,0.00
2019-03-26T02:29:56.584Z,0.00
2019-03-26T02:31:07.758Z,0.00
2019-03-26T02:32:18.939Z,0.00
2019-03-26T02:33:29.619Z,0.00
2019-03-26T02:34:40.305Z,0.00
2019-03-26T02:35:51.493Z,0.00
2019-03-26T02:37:02.183Z,0.00
2019-03-26T02:38:12.874Z,0.00
2019-03-26T02:39:23.566Z,0.00
2019-03-26T02:40:34.251Z,0.00
2019-03-26T02:41:44.936Z,0.00
2019-03-26T02:42:55.620Z,0.00
2019-03-26T02:44:06.306Z,0.00
2019-03-26T02:45:17.001Z,0.00
2019-03-26T02:46:27.674Z,0.00
2019-03-26T02:47:38.357Z,0.00
2019-03-26T02:48:49.039Z,0.00
2019-03-26T02:49:59.728Z,0.00
2019-03-26T02:51:10.903Z,0.00
2019-03-26T02:52:21.585Z,0.00
2019-03-26T02:53:32.754Z,0.00
2019-03-26T02:54:43.934Z,0.00
2019-03-26T02:55:54.617Z,0.00
2019-03-26T02:57:05.307Z,0.00
2019-03-26T02:58:15.981Z,0.00
2019-03-26T02:59:26.670Z,0.00
2019-03-26T03:00:37.835Z,0.00
2019-03-26T03:01:48.510Z,0.00
2019-03-26T03:02:59.193Z,0.00
2019-03-26T03:04:09.874Z,0.00
2019-03-26T03:05:34.426Z,0.00
2019-03-26T03:06:31.728Z,0.00
2019-03-26T03:07:42.902Z,0.00
2019-03-26T03:08:53.598Z,0.00
2019-03-26T03:10:04.265Z,0.00
2019-03-26T03:11:14.938Z,0.00
2019-03-26T03:12:25.609Z,0.00
2019-03-26T03:13:36.293Z,0.00
2019-03-26T03:14:46.964Z,0.00
2019-03-26T03:15:58.644Z,0.00
2019-03-26T03:17:09.324Z,0.00
2019-03-26T03:18:20.007Z,0.00
2019-03-26T03:19:30.679Z,0.00
2019-03-26T03:20:41.355Z,0.00
2019-03-26T03:21:52.038Z,0.00
2019-03-26T03:23:02.710Z,0.00
2019-03-26T03:24:13.384Z,0.00
2019-03-26T03:25:24.061Z,0.00
2019-03-26T03:26:35.221Z,0.00
2019-03-26T03:27:45.896Z,0.00
2019-03-26T03:28:56.569Z,0.00
2019-03-26T03:30:07.261Z,0.00
2019-03-26T03:31:17.912Z,0.00
2019-03-26T03:32:28.605Z,0.00
2019-03-26T03:33:39.770Z,0.00
2019-03-26T03:34:50.941Z,0.00
2019-03-26T03:36:01.599Z,0.00
2019-03-26T03:37:12.284Z,0.00
2019-03-26T03:38:22.962Z,0.00
2019-03-26T03:39:33.622Z,0.00
2019-03-26T03:40:44.285Z,0.00
2019-03-26T03:41:54.954Z,0.00
2019-03-26T03:43:05.620Z,0.00
2019-03-26T03:44:16.291Z,0.00
2019-03-26T03:45:26.953Z,0.00
2019-03-26T03:46:37.615Z,0.00
2019-03-26T03:47:48.277Z,0.00
2019-03-26T03:48:58.944Z,0.00
2019-03-26T03:50:09.616Z,0.00
2019-03-26T03:51:20.768Z,0.00
2019-03-26T03:52:31.917Z,0.00
2019-03-26T03:53:42.583Z,0.00
2019-03-26T03:54:53.241Z,0.00
2019-03-26T03:56:03.901Z,0.00
2019-03-26T03:57:14.571Z,0.00
2019-03-26T03:58:25.236Z,0.00
2019-03-26T03:59:35.906Z,0.00
2019-03-26T04:00:46.550Z,0.00
2019-03-26T04:01:57.212Z,0.00
2019-03-26T04:03:07.871Z,0.00
2019-03-26T04:04:18.533Z,0.00
2019-03-26T04:05:29.175Z,0.00
2019-03-26T04:06:39.830Z,0.00
2019-03-26T04:07:50.632Z,0.00
2019-03-26T04:09:01.292Z,0.00
2019-03-26T04:10:11.948Z,0.00
2019-03-26T04:11:22.604Z,0.00
2019-03-26T04:12:34.745Z,0.00
2019-03-26T04:13:45.898Z,0.00
2019-03-26T04:14:56.556Z,0.00
2019-03-26T04:16:07.201Z,0.00
2019-03-26T04:17:17.858Z,0.00
2019-03-26T04:18:28.513Z,0.00
2019-03-26T04:19:39.171Z,0.00
2019-03-26T04:20:49.818Z,0.00
2019-03-26T04:22:01.468Z,0.00
2019-03-26T04:23:12.627Z,0.00
2019-03-26T04:24:23.765Z,0.00
2019-03-26T04:25:34.419Z,0.00
2019-03-26T04:26:45.060Z,0.00
2019-03-26T04:27:55.713Z,0.00
2019-03-26T04:29:06.365Z,0.00
2019-03-26T04:30:17.014Z,0.00
2019-03-26T04:31:27.673Z,0.00
2019-03-26T04:32:38.316Z,0.00
2019-03-26T04:33:48.968Z,0.00
2019-03-26T04:34:59.618Z,0.00
2019-03-26T04:36:24.808Z,0.00
2019-03-26T04:37:20.925Z,0.00
2019-03-26T04:38:31.566Z,0.00
2019-03-26T04:39:42.218Z,0.00
2019-03-26T04:40:52.862Z,0.00
2019-03-26T04:42:04.038Z,0.00
2019-03-26T04:43:14.644Z,0.00
2019-03-26T04:44:25.300Z,0.00
2019-03-26T04:45:35.948Z,0.00
2019-03-26T04:46:46.601Z,0.00
2019-03-26T04:47:57.253Z,0.00
2019-03-26T04:49:07.906Z,0.00
2019-03-26T04:50:18.571Z,0.00
2019-03-26T04:51:29.725Z,0.00
2019-03-26T04:52:40.384Z,0.00
2019-03-26T04:53:51.545Z,0.00
2019-03-26T04:55:02.199Z,0.00
2019-03-26T04:56:13.335Z,0.00
2019-03-26T04:57:23.992Z,0.00
2019-03-26T04:58:34.636Z,0.00
2019-03-26T04:59:45.793Z,0.00
2019-03-26T05:00:56.447Z,0.00
2019-03-26T05:02:07.589Z,0.00
2019-03-26T05:03:18.244Z,0.00
2019-03-26T05:04:29.397Z,0.00
2019-03-26T05:05:40.060Z,0.00
2019-03-26T05:06:50.708Z,0.00
2019-03-26T05:08:01.851Z,0.00
2019-03-26T05:09:12.502Z,0.00
2019-03-26T05:10:23.168Z,0.00
2019-03-26T05:11:33.817Z,0.00
2019-03-26T05:12:44.965Z,0.00
2019-03-26T05:13:55.623Z,5.63
2019-03-26T05:15:06.290Z,5.63
2019-03-26T05:16:16.949Z,5.63
2019-03-26T05:17:27.620Z,5.63
2019-03-26T05:18:38.280Z,5.63
2019-03-26T05:19:48.932Z,5.63
2019-03-26T05:20:59.595Z,11.25
2019-03-26T05:22:23.226Z,11.25
2019-03-26T05:23:20.903Z,11.25
2019-03-26T05:24:31.562Z,16.88
2019-03-26T05:25:42.230Z,16.88
2019-03-26T05:26:52.889Z,16.88
2019-03-26T05:28:03.543Z,22.50
2019-03-26T05:29:14.200Z,22.50
2019-03-26T05:30:24.871Z,22.50
2019-03-26T05:31:35.548Z,22.50
2019-03-26T05:32:46.709Z,22.50
2019-03-26T05:33:57.368Z,22.50
2019-03-26T05:35:08.037Z,28.13
2019-03-26T05:36:18.725Z,28.13
2019-03-26T05:37:29.388Z,33.75
2019-03-26T05:38:40.058Z,33.75
2019-03-26T05:39:50.718Z,33.75
2019-03-26T05:41:01.391Z,33.75
2019-03-26T05:42:12.077Z,33.75
2019-03-26T05:43:22.744Z,33.75
2019-03-26T05:44:33.414Z,33.75
2019-03-26T05:45:44.626Z,33.75
2019-03-26T05:46:55.297Z,33.75
2019-03-26T05:48:05.971Z,39.38
2019-03-26T05:49:16.644Z,39.38
2019-03-26T05:50:27.819Z,45.00
2019-03-26T05:51:38.497Z,50.63
2019-03-26T05:52:49.167Z,50.63
2019-03-26T05:53:59.836Z,56.25
2019-03-26T05:55:10.724Z,61.88
2019-03-26T05:56:21.903Z,56.25
2019-03-26T05:57:32.578Z,56.25
2019-03-26T05:58:43.272Z,56.25
2019-03-26T05:59:53.951Z,56.25
2019-03-26T06:01:04.642Z,56.25
2019-03-26T06:02:17.953Z,61.88
2019-03-26T06:03:26.657Z,61.88
2019-03-26T06:04:37.830Z,67.50
2019-03-26T06:05:48.526Z,67.50
2019-03-26T06:07:04.650Z,67.50
2019-03-26T06:08:09.901Z,73.13
2019-03-26T06:09:20.587Z,73.13
2019-03-26T06:10:31.277Z,78.75
2019-03-26T06:11:41.972Z,84.38
2019-03-26T06:12:52.658Z,84.38
2019-03-26T06:14:03.344Z,78.75
2019-03-26T06:15:14.629Z,78.75
2019-03-26T06:16:37.620Z,78.75
2019-03-26T06:17:36.033Z,84.38
2019-03-26T06:18:46.737Z,90.00
2019-03-26T06:19:57.437Z,95.63
2019-03-26T06:21:08.128Z,101.25
2019-03-26T06:22:19.324Z,112.50
2019-03-26T06:23:30.019Z,123.75
2019-03-26T06:24:40.713Z,129.38
2019-03-26T06:25:52.933Z,135.00
2019-03-26T06:27:03.609Z,140.63
2019-03-26T06:28:14.305Z,140.63
2019-03-26T06:29:25.510Z,151.88
2019-03-26T06:30:36.228Z,157.50
2019-03-26T06:31:46.942Z,157.50
2019-03-26T06:32:57.645Z,157.50
2019-03-26T06:34:10.536Z,151.88
2019-03-26T06:35:19.056Z,146.25
2019-03-26T06:36:29.770Z,140.63
2019-03-26T06:37:40.637Z,140.63
2019-03-26T06:38:51.362Z,140.63
2019-03-26T06:40:02.081Z,135.00
2019-03-26T06:41:13.289Z,135.00
2019-03-26T06:42:24.626Z,135.00
2019-03-26T06:43:35.837Z,135.00
2019-03-26T06:44:46.551Z,135.00
2019-03-26T06:45:57.275Z,135.00
2019-03-26T06:47:07.999Z,140.63
2019-03-26T06:48:18.741Z,146.25
2019-03-26T06:49:30.957Z,163.13
2019-03-26T06:50:41.678Z,168.75
2019-03-26T06:51:52.914Z,168.75
2019-03-26T06:53:03.634Z,163.13
2019-03-26T06:54:14.368Z,157.50
2019-03-26T06:56:35.839Z,157.50
2019-03-26T06:57:46.558Z,157.50
2019-03-26T06:58:57.288Z,157.50
2019-03-26T07:00:08.020Z,163.13
2019-03-26T07:01:18.754Z,174.38
2019-03-26T07:02:29.986Z,174.38
2019-03-26T07:03:40.711Z,174.38
2019-03-26T07:04:51.443Z,174.38
2019-03-26T07:06:02.684Z,174.38
2019-03-26T07:07:13.414Z,174.38
2019-03-26T07:08:24.152Z,185.63
2019-03-26T07:09:34.890Z,196.88
2019-03-26T07:10:46.126Z,202.50
2019-03-26T07:11:56.864Z,196.88
2019-03-26T07:13:07.616Z,196.88
2019-03-26T07:14:18.353Z,185.63
2019-03-26T07:15:29.094Z,180.00
2019-03-26T07:16:39.834Z,180.00
2019-03-26T07:17:52.476Z,168.75
2019-03-26T07:19:01.339Z,168.75
2019-03-26T07:20:13.565Z,168.75
2019-03-26T07:21:24.326Z,180.00
2019-03-26T07:22:35.096Z,191.25
2019-03-26T07:23:46.333Z,196.88
2019-03-26T07:24:57.588Z,196.88
2019-03-26T07:26:08.339Z,202.50
2019-03-26T07:27:20.085Z,202.50
2019-03-26T07:28:30.834Z,208.13
2019-03-26T07:29:42.078Z,230.63
2019-03-26T07:30:52.832Z,241.88
2019-03-26T07:32:03.598Z,258.75
2019-03-26T07:33:14.345Z,286.88
2019-03-26T07:34:25.613Z,303.75
2019-03-26T07:35:36.386Z,320.63
2019-03-26T07:36:47.146Z,326.25
2019-03-26T07:37:58.404Z,320.63
2019-03-26T07:39:09.159Z,309.38
2019-03-26T07:40:19.924Z,298.13
2019-03-26T07:41:30.700Z,281.25
2019-03-26T07:42:41.473Z,286.88
2019-03-26T07:43:52.731Z,303.75
2019-03-26T07:45:03.504Z,309.38
2019-03-26T07:46:14.282Z,320.63
2019-03-26T07:47:25.551Z,331.88
2019-03-26T07:48:36.325Z,331.88
2019-03-26T07:49:47.105Z,315.00
2019-03-26T07:50:57.878Z,292.50
2019-03-26T07:52:09.146Z,292.50
2019-03-26T07:53:20.418Z,315.00
2019-03-26T07:54:32.682Z,343.13
2019-03-26T07:55:44.008Z,348.75
2019-03-26T07:56:53.746Z,365.63
2019-03-26T07:58:04.537Z,388.13
2019-03-26T07:59:15.820Z,388.13
2019-03-26T08:00:26.692Z,376.88
2019-03-26T08:01:37.495Z,371.25
2019-03-26T08:02:48.300Z,371.25
2019-03-26T08:03:59.594Z,365.63
2019-03-26T08:05:10.383Z,348.75
2019-03-26T08:06:21.184Z,354.38
2019-03-26T08:07:31.984Z,371.25
2019-03-26T08:08:42.783Z,382.50
2019-03-26T08:09:54.081Z,376.88
2019-03-26T08:11:05.392Z,365.63
2019-03-26T08:12:16.188Z,371.25
2019-03-26T08:13:26.999Z,376.88
2019-03-26T08:14:38.298Z,365.63
2019-03-26T08:15:49.293Z,348.75
2019-03-26T08:17:00.114Z,354.38
2019-03-26T08:18:10.911Z,354.38
2019-03-26T08:19:21.994Z,343.13
2019-03-26T08:20:32.797Z,343.13
2019-03-26T08:21:43.613Z,331.88
2019-03-26T08:22:54.427Z,309.38
2019-03-26T08:24:05.239Z,292.50
2019-03-26T08:25:16.051Z,286.88
2019-03-26T08:26:26.853Z,286.88
2019-03-26T08:27:37.672Z,331.88
2019-03-26T08:28:48.638Z,365.63
2019-03-26T08:29:59.457Z,348.75
2019-03-26T08:31:10.761Z,326.25
2019-03-26T08:32:22.065Z,292.50
2019-03-26T08:33:32.921Z,286.88
2019-03-26T08:34:46.632Z,292.50
2019-03-26T08:35:54.550Z,298.13
2019-03-26T08:37:05.854Z,303.75
2019-03-26T08:38:16.660Z,286.88
2019-03-26T08:39:27.992Z,286.88
2019-03-26T08:40:38.791Z,281.25
2019-03-26T08:41:49.603Z,275.63
2019-03-26T08:43:01.483Z,258.75
2019-03-26T08:44:12.220Z,247.50
2019-03-26T08:45:23.522Z,230.63
2019-03-26T08:46:34.330Z,219.38
2019-03-26T08:47:45.140Z,213.75
2019-03-26T08:48:55.936Z,219.38
2019-03-26T08:50:06.756Z,213.75
2019-03-26T08:51:17.566Z,230.63
2019-03-26T08:52:28.373Z,236.25
2019-03-26T08:53:39.179Z,253.13
2019-03-26T08:54:49.990Z,253.13
2019-03-26T08:56:00.801Z,241.88
2019-03-26T08:57:13.100Z,236.25
2019-03-26T08:58:23.910Z,219.38
2019-03-26T08:59:34.749Z,208.13
2019-03-26T09:00:46.053Z,196.88
2019-03-26T09:01:56.847Z,174.38
2019-03-26T09:03:07.641Z,163.13
2019-03-26T09:04:18.937Z,163.13
2019-03-26T09:05:30.236Z,151.88
2019-03-26T09:06:41.518Z,157.50
2019-03-26T09:07:52.304Z,163.13
2019-03-26T09:09:03.099Z,174.38
2019-03-26T09:10:13.898Z,174.38
2019-03-26T09:11:24.688Z,180.00
2019-03-26T09:12:35.481Z,191.25
2019-03-26T09:13:46.267Z,213.75
2019-03-26T09:14:57.060Z,230.63
2019-03-26T09:16:07.856Z,253.13
2019-03-26T09:17:19.948Z,270.00
2019-03-26T09:18:29.432Z,281.25
2019-03-26T09:19:40.718Z,303.75
2019-03-26T09:20:52.008Z,331.88
2019-03-26T09:22:02.811Z,331.88
2019-03-26T09:23:13.590Z,326.25
2019-03-26T09:24:24.381Z,315.00
2019-03-26T09:25:35.177Z,292.50
2019-03-26T09:26:45.976Z,275.63
2019-03-26T09:27:56.781Z,253.13
2019-03-26T09:29:08.073Z,236.25
2019-03-26T09:30:18.877Z,230.63
2019-03-26T09:31:30.174Z,225.00
2019-03-26T09:32:41.473Z,219.38
2019-03-26T09:33:52.311Z,208.13
2019-03-26T09:35:03.262Z,202.50
2019-03-26T09:36:14.634Z,202.50
2019-03-26T09:37:25.947Z,208.13
2019-03-26T09:38:39.036Z,230.63
2019-03-26T09:39:55.747Z,258.75
2019-03-26T09:41:09.757Z,275.63
2019-03-26T09:42:29.621Z,292.50
2019-03-26T09:43:42.135Z,309.38
2019-03-26T09:44:56.494Z,320.63
2019-03-26T09:46:12.219Z,331.88
2019-03-26T09:47:23.748Z,326.25
2019-03-26T09:48:36.072Z,315.00
2019-03-26T09:49:46.902Z,303.75
2019-03-26T09:50:58.209Z,315.00
2019-03-26T09:52:09.026Z,337.50
2019-03-26T09:53:19.840Z,376.88
2019-03-26T09:54:31.177Z,427.50
2019-03-26T09:55:42.011Z,472.50
2019-03-26T09:56:53.336Z,495.00
2019-03-26T09:58:04.638Z,517.50
2019-03-26T09:59:15.951Z,534.38
2019-03-26T10:00:27.325Z,551.25
2019-03-26T10:01:38.122Z,556.88
2019-03-26T10:02:49.481Z,573.75
2019-03-26T10:04:00.284Z,562.50
2019-03-26T10:05:11.629Z,517.50
2019-03-26T10:06:24.016Z,478.13
2019-03-26T10:07:33.799Z,478.13
2019-03-26T10:08:52.313Z,478.13
2019-03-26T10:09:55.750Z,472.50
2019-03-26T10:11:07.087Z,483.75
2019-03-26T10:12:18.424Z,500.63
2019-03-26T10:13:29.278Z,517.50
2019-03-26T10:14:40.630Z,545.63
2019-03-26T10:15:51.635Z,607.50
2019-03-26T10:17:02.989Z,630.00
2019-03-26T10:18:13.862Z,624.38
2019-03-26T10:19:25.209Z,624.38
2019-03-26T10:20:36.065Z,646.88
2019-03-26T10:21:46.946Z,641.25
2019-03-26T10:22:58.300Z,635.63
2019-03-26T10:24:09.166Z,669.38
2019-03-26T10:25:20.535Z,680.63
2019-03-26T10:26:31.908Z,680.63
2019-03-26T10:27:43.292Z,697.50
2019-03-26T10:28:54.172Z,691.88
2019-03-26T10:30:05.966Z,663.75
2019-03-26T10:31:16.526Z,646.88
2019-03-26T10:32:27.914Z,652.50
2019-03-26T10:33:39.293Z,652.50
2019-03-26T10:34:50.689Z,624.38
2019-03-26T10:36:02.082Z,568.13
2019-03-26T10:37:13.627Z,545.63
2019-03-26T10:38:25.037Z,534.38
2019-03-26T10:39:35.937Z,534.38
2019-03-26T10:40:46.837Z,528.75
2019-03-26T10:41:58.241Z,500.63
2019-03-26T10:43:09.142Z,472.50
2019-03-26T10:44:20.529Z,450.00
2019-03-26T10:45:31.433Z,438.75
2019-03-26T10:46:44.556Z,444.38
2019-03-26T10:47:54.228Z,450.00
2019-03-26T10:49:05.128Z,461.25
2019-03-26T10:50:16.521Z,489.38
2019-03-26T10:51:27.913Z,523.13
2019-03-26T10:52:39.309Z,540.00
2019-03-26T10:53:50.706Z,556.88
2019-03-26T10:55:01.610Z,590.63
2019-03-26T10:56:13.020Z,607.50
2019-03-26T10:57:24.422Z,624.38
2019-03-26T10:58:35.836Z,714.38
2019-03-26T10:59:47.241Z,877.50
2019-03-26T11:00:58.639Z,1068.75
2019-03-26T11:02:10.049Z,1018.13
2019-03-26T11:03:20.979Z,1395.00
2019-03-26T11:04:31.917Z,1108.13
2019-03-26T11:05:43.345Z,843.75
2019-03-26T11:06:54.291Z,736.88
2019-03-26T11:08:05.743Z,748.13
2019-03-26T11:09:24.074Z,742.50
2019-03-26T11:10:27.655Z,703.13
2019-03-26T11:11:39.105Z,635.63
2019-03-26T11:12:50.585Z,585.00
2019-03-26T11:14:01.552Z,568.13
2019-03-26T11:15:13.010Z,579.38
2019-03-26T11:16:24.461Z,613.13
2019-03-26T11:17:35.426Z,646.88
2019-03-26T11:18:46.406Z,703.13
2019-03-26T11:19:57.899Z,765.00
2019-03-26T11:21:08.867Z,765.00
2019-03-26T11:22:19.838Z,798.75
2019-03-26T11:23:30.826Z,770.63
2019-03-26T11:24:42.285Z,765.00
2019-03-26T11:25:53.315Z,793.13
2019-03-26T11:27:04.733Z,815.63
2019-03-26T11:28:16.221Z,860.63
2019-03-26T11:29:28.767Z,1001.25
2019-03-26T11:30:40.170Z,1147.50
2019-03-26T11:31:51.216Z,1721.25
2019-03-26T11:33:02.221Z,2885.63
2019-03-26T11:34:13.772Z,2655.00
2019-03-26T11:35:24.831Z,1108.13
2019-03-26T11:36:35.912Z,1035.00
2019-03-26T11:37:47.636Z,1113.75
2019-03-26T11:38:58.741Z,1906.88
2019-03-26T11:40:10.342Z,1473.75
2019-03-26T11:41:21.634Z,1051.88
2019-03-26T11:42:34.256Z,1141.88
2019-03-26T11:43:45.912Z,1293.75
2019-03-26T11:44:59.402Z,1068.75
2019-03-26T11:46:09.296Z,1001.25
2019-03-26T11:47:21.950Z,894.38
2019-03-26T11:48:33.110Z,821.25
2019-03-26T11:49:44.766Z,787.50
2019-03-26T11:50:56.397Z,815.63
2019-03-26T11:52:07.534Z,815.63
2019-03-26T11:53:18.656Z,888.75
2019-03-26T11:54:31.293Z,2278.13
2019-03-26T11:55:42.933Z,2728.13
2019-03-26T11:56:54.567Z,776.25
2019-03-26T11:58:06.203Z,725.63
2019-03-26T11:59:18.349Z,680.63
2019-03-26T12:00:29.683Z,601.88
2019-03-26T12:01:42.307Z,607.50
2019-03-26T12:02:53.925Z,540.00
2019-03-26T12:04:05.057Z,483.75
2019-03-26T12:05:16.639Z,483.75
2019-03-26T12:06:27.741Z,500.63
2019-03-26T12:07:38.820Z,540.00
2019-03-26T12:08:50.385Z,641.25
2019-03-26T12:10:01.963Z,714.38
2019-03-26T12:11:13.036Z,1018.13
2019-03-26T12:12:24.598Z,1226.25
2019-03-26T12:13:36.175Z,2553.75
2019-03-26T12:14:47.776Z,1687.50
2019-03-26T12:15:59.424Z,916.88
2019-03-26T12:17:10.953Z,911.25
2019-03-26T12:18:22.055Z,826.88
2019-03-26T12:19:33.164Z,708.75
2019-03-26T12:20:44.259Z,652.50
2019-03-26T12:21:55.848Z,562.50
2019-03-26T12:23:06.936Z,534.38
2019-03-26T12:24:18.515Z,545.63
2019-03-26T12:25:30.099Z,551.25
2019-03-26T12:26:41.670Z,461.25
2019-03-26T12:27:53.228Z,405.00
2019-03-26T12:29:04.789Z,393.75
2019-03-26T12:30:16.339Z,393.75
2019-03-26T12:31:28.578Z,399.38
2019-03-26T12:32:41.132Z,405.00
2019-03-26T12:33:51.165Z,416.25
2019-03-26T12:35:02.693Z,438.75
2019-03-26T12:36:14.214Z,455.63
2019-03-26T12:37:25.723Z,478.13
2019-03-26T12:38:37.236Z,483.75
2019-03-26T12:39:58.858Z,495.00
2019-03-26T12:41:00.291Z,500.63
2019-03-26T12:42:11.807Z,472.50
2019-03-26T12:43:23.306Z,433.13
2019-03-26T12:44:34.813Z,399.38
2019-03-26T12:45:46.308Z,382.50
2019-03-26T12:46:58.794Z,371.25
2019-03-26T12:48:09.779Z,365.63
2019-03-26T12:49:21.254Z,376.88
2019-03-26T12:50:32.391Z,376.88
2019-03-26T12:51:43.713Z,365.63
2019-03-26T12:52:55.187Z,331.88
2019-03-26T12:54:07.153Z,315.00
2019-03-26T12:55:18.635Z,298.13
2019-03-26T12:56:30.103Z,292.50
2019-03-26T12:57:41.629Z,298.13
2019-03-26T12:58:52.582Z,309.38
2019-03-26T13:00:04.031Z,331.88
2019-03-26T13:01:15.631Z,365.63
2019-03-26T13:02:26.575Z,405.00
2019-03-26T13:03:38.010Z,444.38
2019-03-26T13:04:48.953Z,495.00
2019-03-26T13:06:00.402Z,562.50
2019-03-26T13:07:11.859Z,652.50
2019-03-26T13:08:23.298Z,815.63
2019-03-26T13:09:34.741Z,1462.50
2019-03-26T13:10:53.482Z,1260.00
2019-03-26T13:11:56.700Z,871.88
2019-03-26T13:13:08.168Z,821.25
2019-03-26T13:14:19.688Z,770.63
2019-03-26T13:15:31.190Z,860.63
2019-03-26T13:16:42.193Z,2649.38
2019-03-26T13:17:53.708Z,618.75
2019-03-26T13:19:05.231Z,624.38
2019-03-26T13:20:16.766Z,1164.38
2019-03-26T13:21:27.806Z,624.38
2019-03-26T13:22:40.338Z,630.00
2019-03-26T13:23:51.368Z,669.38
2019-03-26T13:25:02.902Z,708.75
2019-03-26T13:26:13.943Z,3335.63
2019-03-26T13:27:25.623Z,855.00
2019-03-26T13:28:36.679Z,2002.50
2019-03-26T13:29:48.229Z,2103.75
2019-03-26T13:30:59.785Z,1305.00
2019-03-26T13:32:12.950Z,815.63
2019-03-26T13:33:22.433Z,1906.88
2019-03-26T13:34:34.020Z,2351.25
2019-03-26T13:35:45.624Z,2981.25
2019-03-26T13:36:57.272Z,2784.38
2019-03-26T13:38:08.425Z,2722.50
2019-03-26T13:39:19.590Z,2784.38
2019-03-26T13:40:31.274Z,855.00
2019-03-26T13:41:42.964Z,2576.25
2019-03-26T13:42:54.637Z,2610.00
2019-03-26T13:44:06.327Z,2137.50
2019-03-26T13:45:18.038Z,1788.75
2019-03-26T13:46:29.746Z,2171.25
2019-03-26T13:47:40.965Z,2700.00
2019-03-26T13:48:52.696Z,3015.00
2019-03-26T13:50:03.940Z,2311.88
2019-03-26T13:51:15.198Z,1687.50
2019-03-26T13:52:26.959Z,1327.50
2019-03-26T13:53:38.718Z,1265.63
2019-03-26T13:54:49.976Z,1074.38
2019-03-26T13:56:01.242Z,900.00
2019-03-26T13:57:13.004Z,855.00
2019-03-26T13:58:24.741Z,781.88
2019-03-26T13:59:36.484Z,686.25
2019-03-26T14:00:48.208Z,630.00
2019-03-26T14:01:59.931Z,579.38
2019-03-26T14:03:11.135Z,562.50
2019-03-26T14:04:22.330Z,489.38
2019-03-26T14:05:34.001Z,410.63
2019-03-26T14:06:45.658Z,348.75
2019-03-26T14:07:57.343Z,303.75
2019-03-26T14:09:08.971Z,253.13
2019-03-26T14:10:20.099Z,236.25
2019-03-26T14:11:31.711Z,236.25
2019-03-26T14:12:43.308Z,264.38
2019-03-26T14:13:54.891Z,303.75
2019-03-26T14:15:06.465Z,343.13
2019-03-26T14:16:17.540Z,399.38
2019-03-26T14:17:29.110Z,455.63
2019-03-26T14:18:40.657Z,489.38
2019-03-26T14:19:51.714Z,506.25
2019-03-26T14:21:02.765Z,523.13
2019-03-26T14:22:13.813Z,528.75
2019-03-26T14:23:24.846Z,528.75
2019-03-26T14:24:35.879Z,528.75
2019-03-26T14:25:46.918Z,534.38
2019-03-26T14:26:57.951Z,528.75
2019-03-26T14:28:08.984Z,540.00
2019-03-26T14:29:20.508Z,540.00
2019-03-26T14:30:32.031Z,540.00
2019-03-26T14:31:43.619Z,540.00
2019-03-26T14:32:55.151Z,528.75
2019-03-26T14:34:06.171Z,517.50
2019-03-26T14:35:17.670Z,506.25
2019-03-26T14:36:29.183Z,500.63
2019-03-26T14:37:50.693Z,506.25
2019-03-26T14:38:51.210Z,517.50
2019-03-26T14:40:02.225Z,534.38
2019-03-26T14:41:13.241Z,540.00
2019-03-26T14:42:24.250Z,534.38
2019-03-26T14:43:35.741Z,534.38
2019-03-26T14:44:49.940Z,523.13
2019-03-26T14:45:58.758Z,511.88
2019-03-26T14:47:10.256Z,500.63
2019-03-26T14:48:21.761Z,506.25
2019-03-26T14:49:33.254Z,506.25
2019-03-26T14:50:44.750Z,500.63
2019-03-26T14:51:56.250Z,483.75
2019-03-26T14:53:07.245Z,472.50
2019-03-26T14:54:18.729Z,489.38
2019-03-26T14:55:30.220Z,495.00
2019-03-26T14:56:41.216Z,483.75
2019-03-26T14:57:52.702Z,489.38
2019-03-26T14:59:03.694Z,461.25
2019-03-26T15:00:14.676Z,421.88
2019-03-26T15:01:26.166Z,405.00
2019-03-26T15:02:37.150Z,343.13
2019-03-26T15:03:48.636Z,298.13
2019-03-26T15:04:59.613Z,258.75
2019-03-26T15:06:10.598Z,236.25
2019-03-26T15:07:22.086Z,230.63